Time,TemperatureF,DewpointF,PressureIn,WindDirection,WindDirectionDegrees,WindSpeedMPH,WindSpeedGustMPH,Humidity,HourlyPrecipIn,Conditions,Clouds,dailyrainin,SoftwareType,DateUTC
2013-06-20 00:01:00,60.8,51.4,30.11,NE,37,0.0,0.0,71,0.00,,CLR,0.00,VWS V12.08,2013-06-20 04:01:00,
2013-06-20 00:06:00,60.7,52.3,30.11,NE,37,0.0,0.0,74,0.00,,CLR,0.00,VWS V12.08,2013-06-20 04:06:00,
2013-06-20 00:11:00,60.5,52.5,30.11,NE,37,0.0,0.0,75,0.00,,CLR,0.00,VWS V12.08,2013-06-20 04:11:00,
2013-06-20 00:16:00,60.1,52.5,30.11,NE,37,0.0,0.0,76,0.00,,CLR,0.00,VWS V12.08,2013-06-20 04:16:00,
2013-06-20 00:21:00,60.1,52.9,30.11,NE,37,0.0,0.0,77,0.00,,CLR,0.00,VWS V12.08,2013-06-20 04:21:00,
2013-06-20 00:26:00,59.9,52.7,30.11,NE,37,0.0,0.0,77,0.00,,CLR,0.00,VWS V12.08,2013-06-20 04:26:00,
2013-06-20 00:31:00,59.9,53.4,30.11,NE,37,0.0,0.0,79,0.00,,CLR,0.00,VWS V12.08,2013-06-20 04:31:00,
2013-06-20 00:36:00,59.8,53.6,30.11,NE,37,0.0,0.0,80,0.00,,CLR,0.00,VWS V12.08,2013-06-20 04:36:00,
2013-06-20 00:41:00,59.6,53.8,30.11,NE,37,0.0,0.0,81,0.00,,CLR,0.00,VWS V12.08,2013-06-20 04:41:00,
2013-06-20 00:46:00,59.4,53.6,30.11,NE,37,0.0,0.0,81,0.00,,CLR,0.00,VWS V12.08,2013-06-20 04:46:00,
2013-06-20 00:51:00,59.2,53.7,30.11,NE,37,0.0,0.0,82,0.00,,CLR,0.00,VWS V12.08,2013-06-20 04:51:00,
2013-06-20 00:56:00,59.4,53.9,30.11,NE,37,0.0,0.0,82,0.00,,CLR,0.00,VWS V12.08,2013-06-20 04:56:00,
2013-06-20 01:01:00,59.4,53.9,30.11,NE,37,0.0,0.0,82,0.00,,CLR,0.00,VWS V12.08,2013-06-20 05:01:00,
2013-06-20 01:06:00,59.6,54.4,30.11,NE,37,0.0,0.0,83,0.00,,CLR,0.00,VWS V12.08,2013-06-20 05:06:00,
2013-06-20 01:11:00,59.6,54.1,30.11,NE,37,0.0,0.0,82,0.00,,CLR,0.00,VWS V12.08,2013-06-20 05:11:00,
2013-06-20 01:16:00,59.6,54.1,30.11,NE,37,0.0,0.0,82,0.00,,CLR,0.00,VWS V12.08,2013-06-20 05:16:00,
2013-06-20 01:21:00,59.6,54.1,30.11,NE,37,0.0,0.0,82,0.00,,CLR,0.00,VWS V12.08,2013-06-20 05:21:00,
2013-06-20 01:26:00,59.4,53.6,30.11,NE,37,0.0,0.0,81,0.00,,CLR,0.00,VWS V12.08,2013-06-20 05:26:00,
2013-06-20 01:31:00,59.4,53.6,30.11,NE,37,0.0,0.0,81,0.00,,CLR,0.00,VWS V12.08,2013-06-20 05:31:00,
2013-06-20 01:36:00,59.2,53.4,30.11,NE,37,0.0,0.0,81,0.00,,CLR,0.00,VWS V12.08,2013-06-20 05:36:00,
2013-06-20 01:41:00,59.2,53.4,30.11,NE,37,0.0,0.0,81,0.00,,CLR,0.00,VWS V12.08,2013-06-20 05:41:00,
2013-06-20 01:46:00,59.0,53.2,30.11,NE,37,0.0,0.0,81,0.00,,CLR,0.00,VWS V12.08,2013-06-20 05:46:00,
2013-06-20 01:51:00,58.9,53.0,30.11,NE,37,0.0,0.0,81,0.00,,CLR,0.00,VWS V12.08,2013-06-20 05:51:00,
2013-06-20 01:56:00,58.9,53.0,30.11,NE,37,0.0,0.0,81,0.00,,CLR,0.00,VWS V12.08,2013-06-20 05:56:00,
2013-06-20 02:01:00,58.9,53.4,30.11,NE,37,0.0,0.0,82,0.00,,CLR,0.00,VWS V12.08,2013-06-20 06:01:00,
2013-06-20 02:06:00,58.7,53.2,30.11,NE,37,0.0,0.0,82,0.00,,CLR,0.00,VWS V12.08,2013-06-20 06:06:00,
2013-06-20 02:11:00,58.5,53.0,30.11,NE,37,0.0,0.0,82,0.00,,CLR,0.00,VWS V12.08,2013-06-20 06:11:00,
2013-06-20 02:16:00,58.3,53.2,30.11,NE,37,0.0,0.0,83,0.00,,CLR,0.00,VWS V12.08,2013-06-20 06:16:00,
2013-06-20 02:21:00,58.3,53.2,30.11,NE,37,0.0,0.0,83,0.00,,CLR,0.00,VWS V12.08,2013-06-20 06:21:00,
2013-06-20 02:26:00,58.3,53.2,30.11,NE,37,0.0,0.0,83,0.00,,CLR,0.00,VWS V12.08,2013-06-20 06:26:00,
2013-06-20 02:31:00,58.3,53.5,30.11,NE,37,0.0,0.0,84,0.00,,CLR,0.00,VWS V12.08,2013-06-20 06:31:00,
2013-06-20 02:36:00,58.1,53.3,30.11,NE,37,0.0,0.0,84,0.00,,CLR,0.00,VWS V12.08,2013-06-20 06:36:00,
2013-06-20 02:41:00,58.1,53.3,30.11,NE,37,0.0,0.0,84,0.00,,CLR,0.00,VWS V12.08,2013-06-20 06:41:00,
2013-06-20 02:46:00,58.1,53.3,30.11,NE,37,0.0,0.0,84,0.00,,CLR,0.00,VWS V12.08,2013-06-20 06:46:00,
2013-06-20 02:51:00,58.1,53.3,30.11,NE,37,0.0,0.0,84,0.00,,CLR,0.00,VWS V12.08,2013-06-20 06:51:00,
2013-06-20 02:56:00,58.1,53.3,30.11,NE,37,0.0,0.0,84,0.00,,CLR,0.00,VWS V12.08,2013-06-20 06:56:00,
2013-06-20 03:01:00,58.0,53.5,30.11,NE,37,0.0,0.0,85,0.00,,CLR,0.00,VWS V12.08,2013-06-20 07:01:00,
2013-06-20 03:06:00,58.0,53.5,30.11,NE,37,0.0,0.0,85,0.00,,CLR,0.00,VWS V12.08,2013-06-20 07:06:00,
2013-06-20 03:11:00,57.8,53.3,30.11,NE,37,0.0,0.0,85,0.00,,CLR,0.00,VWS V12.08,2013-06-20 07:11:00,
2013-06-20 03:16:00,57.8,53.6,30.11,NE,37,0.0,0.0,86,0.00,,CLR,0.00,VWS V12.08,2013-06-20 07:16:00,
2013-06-20 03:21:00,57.6,53.5,30.11,NE,37,0.0,0.0,86,0.00,,CLR,0.00,VWS V12.08,2013-06-20 07:21:00,
2013-06-20 03:26:00,57.6,53.5,30.11,NE,37,0.0,0.0,86,0.00,,CLR,0.00,VWS V12.08,2013-06-20 07:26:00,
2013-06-20 03:31:00,57.6,53.5,30.11,NE,37,0.0,0.0,86,0.00,,CLR,0.00,VWS V12.08,2013-06-20 07:31:00,
2013-06-20 03:36:00,57.4,53.3,30.11,NE,37,0.0,0.0,86,0.00,,CLR,0.00,VWS V12.08,2013-06-20 07:36:00,
2013-06-20 03:41:00,57.4,53.6,30.11,NE,37,0.0,0.0,87,0.00,,CLR,0.00,VWS V12.08,2013-06-20 07:41:00,
2013-06-20 03:46:00,57.4,53.9,30.11,NE,37,0.0,0.0,88,0.00,,CLR,0.00,VWS V12.08,2013-06-20 07:46:00,
2013-06-20 03:51:00,57.4,54.2,30.11,NE,37,0.0,0.0,89,0.00,,CLR,0.00,VWS V12.08,2013-06-20 07:51:00,
2013-06-20 03:56:00,57.4,54.2,30.11,NE,37,0.0,0.0,89,0.00,,CLR,0.00,VWS V12.08,2013-06-20 07:56:00,
2013-06-20 04:01:00,57.4,54.2,30.11,NE,37,0.0,0.0,89,0.00,,CLR,0.00,VWS V12.08,2013-06-20 08:01:00,
2013-06-20 04:06:00,57.2,54.0,30.11,NE,37,0.0,0.0,89,0.00,,CLR,0.00,VWS V12.08,2013-06-20 08:06:00,
2013-06-20 04:11:00,57.2,54.0,30.11,NE,37,0.0,0.0,89,0.00,,CLR,0.00,VWS V12.08,2013-06-20 08:11:00,
2013-06-20 04:16:00,57.2,54.0,30.11,NE,37,0.0,0.0,89,0.00,,CLR,0.00,VWS V12.08,2013-06-20 08:16:00,
2013-06-20 04:21:00,57.2,54.0,30.11,NE,37,0.0,0.0,89,0.00,,CLR,0.00,VWS V12.08,2013-06-20 08:21:00,
2013-06-20 04:26:00,57.2,54.0,30.11,NE,37,0.0,0.0,89,0.00,,CLR,0.00,VWS V12.08,2013-06-20 08:26:00,
2013-06-20 04:31:00,57.1,53.8,30.11,NE,37,0.0,0.0,89,0.00,,CLR,0.00,VWS V12.08,2013-06-20 08:31:00,
2013-06-20 04:36:00,57.1,53.8,30.11,NE,37,0.0,0.0,89,0.00,,CLR,0.00,VWS V12.08,2013-06-20 08:36:00,
2013-06-20 04:41:00,57.1,53.8,30.11,NE,37,0.0,0.0,89,0.00,,CLR,0.00,VWS V12.08,2013-06-20 08:41:00,
2013-06-20 04:46:00,57.1,54.2,30.11,NE,37,0.0,0.0,90,0.00,,CLR,0.00,VWS V12.08,2013-06-20 08:46:00,
2013-06-20 04:51:00,56.9,54.0,30.11,NE,37,0.0,0.0,90,0.00,,CLR,0.00,VWS V12.08,2013-06-20 08:51:00,
2013-06-20 04:56:00,57.1,54.2,30.11,NE,37,0.0,0.0,90,0.00,,CLR,0.00,VWS V12.08,2013-06-20 08:56:00,
2013-06-20 05:01:00,56.9,54.0,30.11,NE,37,0.0,0.0,90,0.00,,CLR,0.00,VWS V12.08,2013-06-20 09:01:00,
2013-06-20 05:06:00,56.7,53.8,30.14,NE,37,0.0,0.0,90,0.00,,CLR,0.00,VWS V12.08,2013-06-20 09:06:00,
2013-06-20 05:11:00,56.9,54.0,30.14,NE,37,0.0,0.0,90,0.00,,CLR,0.00,VWS V12.08,2013-06-20 09:11:00,
2013-06-20 05:16:00,56.7,54.1,30.14,NE,37,0.0,0.0,91,0.00,,CLR,0.00,VWS V12.08,2013-06-20 09:16:00,
2013-06-20 05:21:00,56.7,54.1,30.14,NE,37,0.0,0.0,91,0.00,,CLR,0.00,VWS V12.08,2013-06-20 09:21:00,
2013-06-20 05:26:00,56.7,54.1,30.14,NE,37,0.0,0.0,91,0.00,,CLR,0.00,VWS V12.08,2013-06-20 09:26:00,
2013-06-20 05:31:00,56.7,54.4,30.14,NE,37,0.0,0.0,92,0.00,,CLR,0.00,VWS V12.08,2013-06-20 09:31:00,
2013-06-20 05:36:00,56.5,54.5,30.14,NE,37,0.0,0.0,93,0.00,,CLR,0.00,VWS V12.08,2013-06-20 09:36:00,
2013-06-20 05:41:00,56.3,54.3,30.14,NE,37,0.0,0.0,93,0.00,,CLR,0.00,VWS V12.08,2013-06-20 09:41:00,
2013-06-20 05:46:00,56.5,54.5,30.14,NE,37,0.0,0.0,93,0.00,,CLR,0.00,VWS V12.08,2013-06-20 09:46:00,
2013-06-20 05:51:00,56.7,54.7,30.14,NE,37,0.0,0.0,93,0.00,,CLR,0.00,VWS V12.08,2013-06-20 09:51:00,
2013-06-20 05:56:00,56.7,54.7,30.14,NE,37,0.0,0.0,93,0.00,,CLR,0.00,VWS V12.08,2013-06-20 09:56:00,
2013-06-20 06:01:00,56.7,54.7,30.14,NE,37,0.0,0.0,93,0.00,,,0.00,VWS V12.08,2013-06-20 10:01:00,
2013-06-20 06:07:00,56.7,54.7,30.14,NE,37,0.0,0.0,93,0.00,,,0.00,VWS V12.08,2013-06-20 10:07:00,
2013-06-20 06:12:00,56.9,54.9,30.14,NE,37,0.0,0.0,93,0.00,,,0.00,VWS V12.08,2013-06-20 10:12:00,
2013-06-20 06:17:00,56.7,54.7,30.14,NE,37,0.0,0.0,93,0.00,,,0.00,VWS V12.08,2013-06-20 10:17:00,
2013-06-20 06:22:00,57.1,55.1,30.14,NE,37,0.0,0.0,93,0.00,,,0.00,VWS V12.08,2013-06-20 10:22:00,
2013-06-20 06:27:00,57.4,55.7,30.14,NE,37,0.0,0.0,94,0.00,,,0.00,VWS V12.08,2013-06-20 10:27:00,
2013-06-20 06:32:00,57.6,55.9,30.14,NE,37,0.0,0.0,94,0.00,,,0.00,VWS V12.08,2013-06-20 10:32:00,
2013-06-20 06:37:00,57.8,56.1,30.14,NE,37,0.0,0.0,94,0.00,,,0.00,VWS V12.08,2013-06-20 10:37:00,
2013-06-20 06:42:00,58.1,56.4,30.14,NE,37,0.0,0.0,94,0.00,,,0.00,VWS V12.08,2013-06-20 10:42:00,
2013-06-20 06:47:00,58.3,56.3,30.14,NE,37,0.0,0.0,93,0.00,,,0.00,VWS V12.08,2013-06-20 10:47:00,
2013-06-20 06:52:00,58.3,56.0,30.14,NE,37,0.0,0.0,92,0.00,,,0.00,VWS V12.08,2013-06-20 10:52:00,
2013-06-20 06:57:00,58.3,55.1,30.14,NE,37,0.0,0.0,89,0.00,,,0.00,VWS V12.08,2013-06-20 10:57:00,
2013-06-20 07:02:00,58.5,54.7,30.14,NE,37,0.0,0.0,87,0.00,,,0.00,VWS V12.08,2013-06-20 11:02:00,
2013-06-20 07:07:00,59.0,54.9,30.17,NE,37,0.0,0.0,86,0.00,,,0.00,VWS V12.08,2013-06-20 11:07:00,
2013-06-20 07:12:00,59.4,55.2,30.17,NE,37,0.0,0.0,86,0.00,,,0.00,VWS V12.08,2013-06-20 11:12:00,
2013-06-20 07:17:00,59.8,54.9,30.17,NE,37,0.0,0.0,84,0.00,,,0.00,VWS V12.08,2013-06-20 11:17:00,
2013-06-20 07:22:00,60.3,55.5,30.17,NE,37,0.0,0.0,84,0.00,,,0.00,VWS V12.08,2013-06-20 11:22:00,
2013-06-20 07:27:00,60.5,55.0,30.17,NE,37,0.0,0.0,82,0.00,,,0.00,VWS V12.08,2013-06-20 11:27:00,
2013-06-20 07:32:00,61.0,55.2,30.17,NE,37,0.0,0.0,81,0.00,,,0.00,VWS V12.08,2013-06-20 11:32:00,
2013-06-20 07:37:00,61.2,54.6,30.17,NE,37,0.0,0.0,79,0.00,,,0.00,VWS V12.08,2013-06-20 11:37:00,
2013-06-20 07:42:00,61.4,54.1,30.17,NE,37,0.0,0.0,77,0.00,,,0.00,VWS V12.08,2013-06-20 11:42:00,
2013-06-20 07:47:00,61.9,54.6,30.17,NE,37,2.2,2.7,77,0.00,,,0.00,VWS V12.08,2013-06-20 11:47:00,
2013-06-20 07:52:00,62.6,55.0,30.17,NE,37,0.0,0.0,76,0.00,,,0.00,VWS V12.08,2013-06-20 11:52:00,
2013-06-20 07:57:00,63.5,56.6,30.17,NE,37,0.0,0.0,78,0.00,,,0.00,VWS V12.08,2013-06-20 11:57:00,
2013-06-20 08:02:00,63.9,55.5,30.17,NE,37,0.0,0.0,74,0.00,,,0.00,VWS V12.08,2013-06-20 12:02:00,
2013-06-20 08:07:00,64.6,56.5,30.17,NE,37,0.0,0.0,75,0.00,,,0.00,VWS V12.08,2013-06-20 12:07:00,
2013-06-20 08:12:00,65.2,56.3,30.17,NE,53,0.0,0.0,73,0.00,,,0.00,VWS V12.08,2013-06-20 12:12:00,
2013-06-20 08:17:00,65.7,56.8,30.17,SE,129,0.0,0.0,73,0.00,,,0.00,VWS V12.08,2013-06-20 12:17:00,
2013-06-20 08:22:00,66.4,56.0,30.17,SE,128,0.0,2.2,69,0.00,,,0.00,VWS V12.08,2013-06-20 12:22:00,
2013-06-20 08:27:00,67.0,55.2,30.17,ESE,114,2.7,3.6,66,0.00,,,0.00,VWS V12.08,2013-06-20 12:27:00,
2013-06-20 08:32:00,67.5,54.9,30.17,East,88,0.0,0.0,64,0.00,,,0.00,VWS V12.08,2013-06-20 12:32:00,
2013-06-20 08:37:00,68.4,56.2,30.17,East,88,0.0,0.0,65,0.00,,,0.00,VWS V12.08,2013-06-20 12:37:00,
2013-06-20 08:42:00,68.8,55.2,30.17,East,88,0.0,0.0,62,0.00,,,0.00,VWS V12.08,2013-06-20 12:42:00,
2013-06-20 08:47:00,69.1,55.1,30.17,East,88,0.0,0.0,61,0.00,,,0.00,VWS V12.08,2013-06-20 12:47:00,
2013-06-20 08:52:00,69.7,56.1,30.17,East,88,0.0,0.0,62,0.00,,,0.00,VWS V12.08,2013-06-20 12:52:00,
2013-06-20 08:57:00,70.2,56.1,30.17,East,88,0.0,0.0,61,0.00,,,0.00,VWS V12.08,2013-06-20 12:57:00,
2013-06-20 09:02:00,70.7,58.0,30.17,South,173,0.0,0.0,64,0.00,,,0.00,VWS V12.08,2013-06-20 13:02:00,
2013-06-20 09:07:00,70.4,55.8,30.17,SSW,192,0.0,0.0,60,0.00,,,0.00,VWS V12.08,2013-06-20 13:07:00,
2013-06-20 09:12:00,70.9,57.3,30.17,South,176,0.0,0.0,62,0.00,,,0.00,VWS V12.08,2013-06-20 13:12:00,
2013-06-20 09:17:00,71.8,56.3,30.17,SW,226,0.0,0.0,58,0.00,,CLR,0.00,VWS V12.08,2013-06-20 13:17:00,
2013-06-20 09:22:00,72.4,56.3,30.17,WSW,241,0.0,0.0,57,0.00,,CLR,0.00,VWS V12.08,2013-06-20 13:22:00,
2013-06-20 09:27:00,72.9,55.8,30.17,South,178,0.0,0.0,55,0.00,,CLR,0.00,VWS V12.08,2013-06-20 13:27:00,
2013-06-20 09:32:00,73.4,57.3,30.17,WSW,241,0.0,0.0,57,0.00,,CLR,0.00,VWS V12.08,2013-06-20 13:32:00,
2013-06-20 09:37:00,73.6,55.5,30.17,WSW,240,0.0,0.0,53,0.00,,CLR,0.00,VWS V12.08,2013-06-20 13:37:00,
2013-06-20 09:42:00,74.2,56.5,30.17,SSW,193,0.0,0.0,54,0.00,,CLR,0.00,VWS V12.08,2013-06-20 13:42:00,
2013-06-20 09:47:00,74.5,55.8,30.17,SW,216,0.0,0.0,52,0.00,,CLR,0.00,VWS V12.08,2013-06-20 13:47:00,
2013-06-20 09:52:00,75.1,55.7,30.17,SW,214,0.0,2.7,51,0.00,,CLR,0.00,VWS V12.08,2013-06-20 13:52:00,
2013-06-20 09:57:00,75.6,57.3,30.17,SSE,160,0.0,0.0,53,0.00,,CLR,0.00,VWS V12.08,2013-06-20 13:57:00,
2013-06-20 10:02:00,76.1,57.2,30.17,SSE,152,0.0,0.0,52,0.00,,CLR,0.00,VWS V12.08,2013-06-20 14:02:00,
2013-06-20 10:07:00,76.1,57.2,30.20,SSW,199,0.0,0.0,52,0.00,,CLR,0.00,VWS V12.08,2013-06-20 14:07:00,
2013-06-20 10:12:00,76.5,58.6,30.20,SSE,158,2.7,3.1,54,0.00,,CLR,0.00,VWS V12.08,2013-06-20 14:12:00,
2013-06-20 10:17:00,77.4,58.4,30.20,South,176,2.2,3.1,52,0.00,,CLR,0.00,VWS V12.08,2013-06-20 14:17:00,
2013-06-20 10:22:00,77.4,57.9,30.17,SSE,168,0.0,0.0,51,0.00,,CLR,0.00,VWS V12.08,2013-06-20 14:22:00,
2013-06-20 10:27:00,77.8,57.7,30.17,WSW,246,0.0,2.7,50,0.00,,CLR,0.00,VWS V12.08,2013-06-20 14:27:00,
2013-06-20 10:32:00,77.6,53.3,30.17,SSE,157,0.0,0.0,43,0.00,,CLR,0.00,VWS V12.08,2013-06-20 14:32:00,
2013-06-20 10:37:00,77.4,57.9,30.20,SSW,213,0.0,0.0,51,0.00,,CLR,0.00,VWS V12.08,2013-06-20 14:37:00,
2013-06-20 10:42:00,77.6,52.0,30.20,ESE,103,0.0,2.2,41,0.00,,CLR,0.00,VWS V12.08,2013-06-20 14:42:00,
2013-06-20 10:47:00,78.3,54.6,30.20,South,170,0.0,0.0,44,0.00,,CLR,0.00,VWS V12.08,2013-06-20 14:47:00,
2013-06-20 10:52:00,78.8,52.5,30.20,NW,324,2.7,3.1,40,0.00,,CLR,0.00,VWS V12.08,2013-06-20 14:52:00,
2013-06-20 10:57:00,78.8,52.5,30.20,WSW,248,0.0,0.0,40,0.00,,CLR,0.00,VWS V12.08,2013-06-20 14:57:00,
2013-06-20 11:02:00,79.0,52.0,30.20,NNE,23,3.6,4.9,39,0.00,,FEW035,0.00,VWS V12.08,2013-06-20 15:02:00,
2013-06-20 11:07:00,79.0,53.3,30.20,ESE,109,3.1,3.6,41,0.00,,FEW035,0.00,VWS V12.08,2013-06-20 15:07:00,
2013-06-20 11:12:00,79.7,54.0,30.20,SSE,168,2.7,3.1,41,0.00,,FEW035,0.00,VWS V12.08,2013-06-20 15:12:00,
2013-06-20 11:17:00,79.6,51.0,30.20,SE,124,2.2,3.1,37,0.00,,FEW035,0.00,VWS V12.08,2013-06-20 15:17:00,
2013-06-20 11:22:00,79.9,52.1,30.20,NNE,15,2.7,5.4,38,0.00,,FEW035,0.00,VWS V12.08,2013-06-20 15:22:00,
2013-06-20 11:27:00,79.9,53.5,30.20,SE,127,2.7,3.6,40,0.00,,FEW035,0.00,VWS V12.08,2013-06-20 15:27:00,
2013-06-20 11:32:00,80.6,50.5,30.20,ESE,119,3.1,4.0,35,0.00,,FEW035,0.00,VWS V12.08,2013-06-20 15:32:00,
2013-06-20 11:37:00,81.4,53.3,30.20,NE,45,4.0,4.0,38,0.00,,FEW035,0.00,VWS V12.08,2013-06-20 15:37:00,
2013-06-20 11:42:00,81.5,48.0,30.20,ENE,64,2.2,4.9,31,0.00,,FEW035,0.00,VWS V12.08,2013-06-20 15:42:00,
2013-06-20 11:47:00,81.2,48.5,30.20,North,6,0.0,0.0,32,0.00,,FEW035,0.00,VWS V12.08,2013-06-20 15:47:00,
2013-06-20 11:52:00,82.1,53.3,30.20,SE,139,3.1,5.4,37,0.00,,FEW035,0.00,VWS V12.08,2013-06-20 15:52:00,
2013-06-20 11:57:00,82.3,54.9,30.20,SSE,156,3.1,4.9,39,0.00,,FEW035,0.00,VWS V12.08,2013-06-20 15:57:00,
2013-06-20 12:02:00,82.3,48.6,30.20,NNE,16,4.9,4.9,31,0.00,,CLR,0.00,VWS V12.08,2013-06-20 16:02:00,
2013-06-20 12:07:00,81.5,49.7,30.20,ENE,65,3.1,4.9,33,0.00,,CLR,0.00,VWS V12.08,2013-06-20 16:07:00,
2013-06-20 12:12:00,79.4,47.0,30.20,NNE,16,0.0,4.0,32,0.00,,CLR,0.00,VWS V12.08,2013-06-20 16:12:00,
2013-06-20 12:17:00,77.9,47.3,30.20,North,11,4.9,4.9,34,0.00,,CLR,0.00,VWS V12.08,2013-06-20 16:17:00,
2013-06-20 12:22:00,76.0,47.8,30.17,NE,37,2.7,4.0,37,0.00,,CLR,0.00,VWS V12.08,2013-06-20 16:22:00,
2013-06-20 12:27:00,78.1,51.9,30.17,ESE,115,3.1,5.8,40,0.00,,CLR,0.00,VWS V12.08,2013-06-20 16:27:00,
2013-06-20 12:32:00,80.1,49.2,30.17,SE,126,3.6,3.6,34,0.00,,CLR,0.00,VWS V12.08,2013-06-20 16:32:00,
2013-06-20 12:37:00,81.9,52.3,30.17,SSE,165,0.0,2.7,36,0.00,,CLR,0.00,VWS V12.08,2013-06-20 16:37:00,
2013-06-20 12:42:00,83.0,51.8,30.17,SW,219,0.0,4.0,34,0.00,,CLR,0.00,VWS V12.08,2013-06-20 16:42:00,
2013-06-20 12:47:00,83.0,49.3,30.17,ESE,123,3.1,6.3,31,0.00,,CLR,0.00,VWS V12.08,2013-06-20 16:47:00,
2013-06-20 12:52:00,83.2,50.3,30.17,South,170,2.7,6.3,32,0.00,,CLR,0.00,VWS V12.08,2013-06-20 16:52:00,
2013-06-20 12:57:00,83.2,51.1,30.17,South,176,4.0,4.0,33,0.00,,CLR,0.00,VWS V12.08,2013-06-20 16:57:00,
2013-06-20 13:02:00,83.5,53.8,30.17,SSW,197,0.0,0.0,36,0.00,,SCT042,0.00,VWS V12.08,2013-06-20 17:02:00,
2013-06-20 13:07:00,83.7,49.0,30.17,ESE,117,2.7,5.4,30,0.00,,SCT042,0.00,VWS V12.08,2013-06-20 17:07:00,
2013-06-20 13:12:00,83.3,49.6,30.17,SSW,192,0.0,4.0,31,0.00,,SCT042,0.00,VWS V12.08,2013-06-20 17:12:00,
2013-06-20 13:17:00,82.8,48.2,30.17,SE,140,3.1,3.6,30,0.00,,SCT042,0.00,VWS V12.08,2013-06-20 17:17:00,
2013-06-20 13:22:00,83.0,50.9,30.17,SSW,209,0.0,3.6,33,0.00,,SCT042,0.00,VWS V12.08,2013-06-20 17:22:00,
2013-06-20 13:27:00,83.3,48.7,30.17,NW,322,0.0,0.0,30,0.00,,SCT042,0.00,VWS V12.08,2013-06-20 17:27:00,
2013-06-20 13:32:00,83.3,52.8,30.17,SSE,157,0.0,0.0,35,0.00,,SCT042,0.00,VWS V12.08,2013-06-20 17:32:00,
2013-06-20 13:37:00,84.2,52.0,30.17,South,181,0.0,0.0,33,0.00,,SCT042,0.00,VWS V12.08,2013-06-20 17:37:00,
2013-06-20 13:42:00,84.1,51.0,30.17,SE,141,0.0,0.0,32,0.00,,SCT042,0.00,VWS V12.08,2013-06-20 17:42:00,
2013-06-20 13:47:00,84.1,50.2,30.17,WSW,255,0.0,0.0,31,0.00,,SCT042,0.00,VWS V12.08,2013-06-20 17:47:00,
2013-06-20 13:52:00,84.1,49.3,30.17,SW,215,0.0,0.0,30,0.00,,SCT042,0.00,VWS V12.08,2013-06-20 17:52:00,
2013-06-20 13:57:00,84.1,48.4,30.17,SSE,151,0.0,0.0,29,0.00,,SCT042,0.00,VWS V12.08,2013-06-20 17:57:00,
2013-06-20 14:02:00,84.1,50.2,30.17,SE,137,0.0,0.0,31,0.00,,SCT044,0.00,VWS V12.08,2013-06-20 18:02:00,
2013-06-20 14:07:00,83.9,50.0,30.17,SSE,158,0.0,0.0,31,0.00,,SCT044,0.00,VWS V12.08,2013-06-20 18:07:00,
2013-06-20 14:12:00,84.2,49.5,30.17,West,273,0.0,0.0,30,0.00,,SCT044,0.00,VWS V12.08,2013-06-20 18:12:00,
2013-06-20 14:17:00,84.2,49.5,30.17,SSW,198,0.0,0.0,30,0.00,,SCT044,0.00,VWS V12.08,2013-06-20 18:17:00,
2013-06-20 14:22:00,84.2,49.5,30.17,SSW,213,0.0,0.0,30,0.00,,SCT044,0.00,VWS V12.08,2013-06-20 18:22:00,
2013-06-20 14:27:00,84.6,50.7,30.17,SSW,211,0.0,0.0,31,0.00,,SCT044,0.00,VWS V12.08,2013-06-20 18:27:00,
2013-06-20 14:32:00,85.0,49.2,30.17,ESE,117,0.0,0.0,29,0.00,,SCT044,0.00,VWS V12.08,2013-06-20 18:32:00,
2013-06-20 14:37:00,84.8,49.9,30.17,SSW,199,0.0,0.0,30,0.00,,SCT044,0.00,VWS V12.08,2013-06-20 18:37:00,
2013-06-20 14:42:00,85.0,50.1,30.17,WSW,241,0.0,0.0,30,0.00,,SCT044,0.00,VWS V12.08,2013-06-20 18:42:00,
2013-06-20 14:47:00,85.1,49.3,30.17,ENE,77,0.0,0.0,29,0.00,,SCT044,0.00,VWS V12.08,2013-06-20 18:47:00,
2013-06-20 14:52:00,85.3,49.5,30.17,SSE,151,0.0,0.0,29,0.00,,SCT044,0.00,VWS V12.08,2013-06-20 18:52:00,
2013-06-20 14:57:00,85.1,50.2,30.17,West,273,0.0,5.8,30,0.00,,SCT044,0.00,VWS V12.08,2013-06-20 18:57:00,
2013-06-20 15:02:00,84.4,48.7,30.17,West,267,0.0,0.0,29,0.00,,FEW050,0.00,VWS V12.08,2013-06-20 19:02:00,
2013-06-20 15:07:00,83.7,49.0,30.14,SW,234,3.1,4.0,30,0.00,,FEW050,0.00,VWS V12.08,2013-06-20 19:07:00,
2013-06-20 15:12:00,83.7,49.9,30.14,West,276,4.0,4.5,31,0.00,,FEW050,0.00,VWS V12.08,2013-06-20 19:12:00,
2013-06-20 15:17:00,83.7,49.0,30.14,WSW,252,0.0,2.2,30,0.00,,FEW050,0.00,VWS V12.08,2013-06-20 19:17:00,
2013-06-20 15:22:00,83.5,49.7,30.17,East,99,3.6,3.6,31,0.00,,FEW050,0.00,VWS V12.08,2013-06-20 19:22:00,
2013-06-20 15:27:00,83.3,49.6,30.17,SSW,198,0.0,3.6,31,0.00,,FEW050,0.00,VWS V12.08,2013-06-20 19:27:00,
2013-06-20 15:32:00,83.3,49.6,30.17,WSW,256,0.0,3.6,31,0.00,,FEW050,0.00,VWS V12.08,2013-06-20 19:32:00,
2013-06-20 15:37:00,83.3,50.4,30.14,SSW,205,0.0,0.0,32,0.00,,FEW050,0.00,VWS V12.08,2013-06-20 19:37:00,
2013-06-20 15:42:00,83.0,48.4,30.14,SW,235,0.0,0.0,30,0.00,,FEW050,0.00,VWS V12.08,2013-06-20 19:42:00,
2013-06-20 15:47:00,82.3,49.5,30.14,WNW,291,0.0,0.0,32,0.00,,FEW050,0.00,VWS V12.08,2013-06-20 19:47:00,
2013-06-20 15:52:00,81.5,48.9,30.14,SSE,161,2.7,3.1,32,0.00,,FEW050,0.00,VWS V12.08,2013-06-20 19:52:00,
2013-06-20 15:57:00,81.7,52.2,30.14,SW,230,0.0,0.0,36,0.00,,FEW050,0.00,VWS V12.08,2013-06-20 19:57:00,
2013-06-20 16:02:00,81.9,50.8,30.14,SSW,198,0.0,3.1,34,0.00,,FEW050,0.00,VWS V12.08,2013-06-20 20:02:00,
2013-06-20 16:07:00,82.1,50.2,30.17,SSE,157,3.1,4.9,33,0.00,,FEW050,0.00,VWS V12.08,2013-06-20 20:07:00,
2013-06-20 16:12:00,81.4,47.9,30.17,SE,124,0.0,2.7,31,0.00,,FEW050,0.00,VWS V12.08,2013-06-20 20:12:00,
2013-06-20 16:17:00,81.2,48.5,30.17,SSE,147,0.0,0.0,32,0.00,,FEW050,0.00,VWS V12.08,2013-06-20 20:17:00,
2013-06-20 16:22:00,81.4,50.3,30.17,SSE,152,0.0,0.0,34,0.00,,FEW050,0.00,VWS V12.08,2013-06-20 20:22:00,
2013-06-20 16:27:00,81.2,48.5,30.17,NNE,33,0.0,2.7,32,0.00,,FEW050,0.00,VWS V12.08,2013-06-20 20:27:00,
2013-06-20 16:32:00,81.0,49.2,30.17,NNE,18,0.0,3.1,33,0.00,,FEW050,0.00,VWS V12.08,2013-06-20 20:32:00,
2013-06-20 16:37:00,81.4,55.4,30.17,West,272,0.0,0.0,41,0.00,,FEW050,0.00,VWS V12.08,2013-06-20 20:37:00,
2013-06-20 16:42:00,81.5,53.5,30.17,SSW,210,0.0,0.0,38,0.00,,FEW050,0.00,VWS V12.08,2013-06-20 20:42:00,
2013-06-20 16:47:00,81.2,53.9,30.17,WNW,296,0.0,0.0,39,0.00,,FEW050,0.00,VWS V12.08,2013-06-20 20:47:00,
2013-06-20 16:52:00,80.5,49.5,30.17,SW,217,0.0,4.0,34,0.00,,FEW050,0.00,VWS V12.08,2013-06-20 20:52:00,
2013-06-20 16:57:00,79.7,54.0,30.17,SW,233,0.0,0.0,41,0.00,,FEW050,0.00,VWS V12.08,2013-06-20 20:57:00,
2013-06-20 17:02:00,78.8,52.5,30.17,SW,233,0.0,0.0,40,0.00,,CLR,0.00,VWS V12.08,2013-06-20 21:02:00,
2013-06-20 17:07:00,77.9,52.4,30.17,SW,233,0.0,0.0,41,0.00,,CLR,0.00,VWS V12.08,2013-06-20 21:07:00,
2013-06-20 17:12:00,77.8,52.2,30.17,SW,233,0.0,0.0,41,0.00,,CLR,0.00,VWS V12.08,2013-06-20 21:12:00,
2013-06-20 17:17:00,77.9,51.7,30.17,SW,233,0.0,0.0,40,0.00,,CLR,0.00,VWS V12.08,2013-06-20 21:17:00,
2013-06-20 17:22:00,78.3,49.2,30.14,NE,52,2.2,2.7,36,0.00,,CLR,0.00,VWS V12.08,2013-06-20 21:22:00,
2013-06-20 17:27:00,78.8,49.7,30.14,NE,52,0.0,0.0,36,0.00,,CLR,0.00,VWS V12.08,2013-06-20 21:27:00,
2013-06-20 17:32:00,79.2,52.1,30.14,SSW,210,0.0,0.0,39,0.00,,CLR,0.00,VWS V12.08,2013-06-20 21:32:00,
2013-06-20 17:37:00,79.0,52.7,30.14,WSW,244,0.0,0.0,40,0.00,,CLR,0.00,VWS V12.08,2013-06-20 21:37:00,
2013-06-20 17:42:00,78.8,52.5,30.14,SSW,212,2.7,3.6,40,0.00,,CLR,0.00,VWS V12.08,2013-06-20 21:42:00,
2013-06-20 17:47:00,78.8,49.7,30.14,WSW,241,0.0,5.4,36,0.00,,CLR,0.00,VWS V12.08,2013-06-20 21:47:00,
2013-06-20 17:52:00,78.8,52.5,30.14,SSW,213,0.0,0.0,40,0.00,,CLR,0.00,VWS V12.08,2013-06-20 21:52:00,
2013-06-20 17:57:00,78.3,52.0,30.14,WSW,253,0.0,0.0,40,0.00,,CLR,0.00,VWS V12.08,2013-06-20 21:57:00,
2013-06-20 18:02:00,78.1,51.2,30.14,SW,233,0.0,0.0,39,0.00,,CLR,0.00,VWS V12.08,2013-06-20 22:02:00,
2013-06-20 18:07:00,77.9,51.7,30.14,SW,226,0.0,0.0,40,0.00,,CLR,0.00,VWS V12.08,2013-06-20 22:07:00,
2013-06-20 18:12:00,77.8,48.7,30.14,East,80,0.0,0.0,36,0.00,,CLR,0.00,VWS V12.08,2013-06-20 22:12:00,
2013-06-20 18:17:00,77.6,48.5,30.14,South,182,0.0,0.0,36,0.00,,CLR,0.00,VWS V12.08,2013-06-20 22:17:00,
2013-06-20 18:22:00,77.4,49.8,30.14,South,175,0.0,0.0,38,0.00,,CLR,0.00,VWS V12.08,2013-06-20 22:22:00,
2013-06-20 18:27:00,77.0,50.9,30.14,South,183,0.0,0.0,40,0.00,,CLR,0.00,VWS V12.08,2013-06-20 22:27:00,
2013-06-20 18:32:00,76.7,47.8,30.14,ENE,72,0.0,2.7,36,0.00,,CLR,0.00,VWS V12.08,2013-06-20 22:32:00,
2013-06-20 18:37:00,76.7,47.8,30.14,North,0,0.0,0.0,36,0.00,,CLR,0.00,VWS V12.08,2013-06-20 22:37:00,
2013-06-20 18:42:00,76.7,50.6,30.14,North,0,0.0,0.0,40,0.00,,CLR,0.00,VWS V12.08,2013-06-20 22:42:00,
2013-06-20 18:47:00,76.3,49.6,30.14,NE,37,3.1,3.1,39,0.00,,CLR,0.00,VWS V12.08,2013-06-20 22:47:00,
2013-06-20 18:52:00,76.3,48.2,30.14,NNE,33,3.1,5.4,37,0.00,,CLR,0.00,VWS V12.08,2013-06-20 22:52:00,
2013-06-20 18:57:00,76.3,50.2,30.14,NNW,328,0.0,0.0,40,0.00,,CLR,0.00,VWS V12.08,2013-06-20 22:57:00,
2013-06-20 19:02:00,76.1,50.8,30.14,NW,323,0.0,0.0,41,0.00,,CLR,0.00,VWS V12.08,2013-06-20 23:02:00,
2013-06-20 19:07:00,76.0,49.9,30.14,NNE,25,2.2,3.1,40,0.00,,CLR,0.00,VWS V12.08,2013-06-20 23:07:00,
2013-06-20 19:12:00,76.0,50.6,30.14,ESE,121,0.0,2.7,41,0.00,,CLR,0.00,VWS V12.08,2013-06-20 23:12:00,
2013-06-20 19:17:00,75.6,50.3,30.14,ESE,121,0.0,0.0,41,0.00,,CLR,0.00,VWS V12.08,2013-06-20 23:17:00,
2013-06-20 19:22:00,75.2,49.9,30.17,ESE,121,0.0,0.0,41,0.00,,CLR,0.00,VWS V12.08,2013-06-20 23:22:00,
2013-06-20 19:27:00,75.1,50.4,30.17,NE,43,0.0,0.0,42,0.00,,CLR,0.00,VWS V12.08,2013-06-20 23:27:00,
2013-06-20 19:32:00,74.9,49.6,30.17,NE,39,0.0,0.0,41,0.00,,CLR,0.00,VWS V12.08,2013-06-20 23:32:00,
2013-06-20 19:37:00,74.7,49.5,30.17,NE,36,0.0,0.0,41,0.00,,CLR,0.00,VWS V12.08,2013-06-20 23:37:00,
2013-06-20 19:42:00,74.7,49.5,30.17,SE,138,0.0,0.0,41,0.00,,CLR,0.00,VWS V12.08,2013-06-20 23:42:00,
2013-06-20 19:47:00,74.5,50.0,30.17,SE,140,0.0,0.0,42,0.00,,CLR,0.00,VWS V12.08,2013-06-20 23:47:00,
2013-06-20 19:52:00,74.3,49.8,30.17,SW,226,0.0,0.0,42,0.00,,CLR,0.00,VWS V12.08,2013-06-20 23:52:00,
2013-06-20 19:58:00,74.2,49.6,30.17,SW,226,0.0,0.0,42,0.00,,CLR,0.00,VWS V12.08,2013-06-20 23:58:00,
2013-06-20 20:03:00,73.8,49.9,30.17,SW,226,0.0,0.0,43,0.00,,CLR,0.00,VWS V12.08,2013-06-21 00:03:00,
2013-06-20 20:08:00,73.6,49.8,30.17,SW,226,0.0,0.0,43,0.00,,CLR,0.00,VWS V12.08,2013-06-21 00:08:00,
2013-06-20 20:13:00,73.4,49.6,30.17,SW,226,0.0,0.0,43,0.00,,CLR,0.00,VWS V12.08,2013-06-21 00:13:00,
2013-06-20 20:18:00,73.1,49.9,30.17,SW,226,0.0,0.0,44,0.00,,CLR,0.00,VWS V12.08,2013-06-21 00:18:00,
2013-06-20 20:23:00,72.9,49.7,30.17,SW,226,0.0,0.0,44,0.00,,CLR,0.00,VWS V12.08,2013-06-21 00:23:00,
2013-06-20 20:28:00,72.5,49.4,30.17,SW,226,0.0,0.0,44,0.00,,CLR,0.00,VWS V12.08,2013-06-21 00:28:00,
2013-06-20 20:33:00,72.4,49.2,30.17,SW,226,0.0,0.0,44,0.00,,CLR,0.00,VWS V12.08,2013-06-21 00:33:00,
2013-06-20 20:38:00,72.2,49.7,30.17,SW,226,0.0,0.0,45,0.00,,CLR,0.00,VWS V12.08,2013-06-21 00:38:00,
2013-06-20 20:43:00,71.8,49.4,30.17,SW,226,0.0,0.0,45,0.00,,CLR,0.00,VWS V12.08,2013-06-21 00:43:00,
2013-06-20 20:48:00,71.6,49.8,30.17,SW,226,0.0,0.0,46,0.00,,CLR,0.00,VWS V12.08,2013-06-21 00:48:00,
2013-06-20 20:53:00,71.5,49.6,30.17,SW,226,0.0,0.0,46,0.00,,CLR,0.00,VWS V12.08,2013-06-21 00:53:00,
2013-06-20 20:58:00,71.3,50.6,30.17,SW,226,0.0,0.0,48,0.00,,CLR,0.00,VWS V12.08,2013-06-21 00:58:00,
2013-06-20 21:03:00,70.9,50.3,30.17,SW,226,0.0,0.0,48,0.00,,CLR,0.00,VWS V12.08,2013-06-21 01:03:00,
2013-06-20 21:08:00,70.6,51.0,30.14,SW,226,0.0,0.0,50,0.00,,CLR,0.00,VWS V12.08,2013-06-21 01:08:00,
2013-06-20 21:13:00,70.2,50.7,30.14,SW,226,0.0,0.0,50,0.00,,CLR,0.00,VWS V12.08,2013-06-21 01:13:00,
2013-06-20 21:18:00,70.0,51.1,30.14,SW,226,0.0,0.0,51,0.00,,CLR,0.00,VWS V12.08,2013-06-21 01:18:00,
2013-06-20 21:23:00,69.8,51.4,30.14,SW,226,0.0,0.0,52,0.00,,CLR,0.00,VWS V12.08,2013-06-21 01:23:00,
2013-06-20 21:28:00,69.7,51.8,30.14,SW,226,0.0,0.0,53,0.00,,CLR,0.00,VWS V12.08,2013-06-21 01:28:00,
2013-06-20 21:33:00,69.3,51.5,30.14,SW,226,0.0,0.0,53,0.00,,CLR,0.00,VWS V12.08,2013-06-21 01:33:00,
2013-06-20 21:38:00,69.5,52.1,30.17,SW,226,0.0,0.0,54,0.00,,CLR,0.00,VWS V12.08,2013-06-21 01:38:00,
2013-06-20 21:43:00,69.5,52.1,30.17,SW,226,0.0,0.0,54,0.00,,CLR,0.00,VWS V12.08,2013-06-21 01:43:00,
2013-06-20 21:48:00,69.3,51.5,30.17,SW,226,0.0,0.0,53,0.00,,CLR,0.00,VWS V12.08,2013-06-21 01:48:00,
2013-06-20 21:53:00,68.9,51.1,30.17,SW,226,0.0,0.0,53,0.00,,CLR,0.00,VWS V12.08,2013-06-21 01:53:00,
2013-06-20 21:58:00,68.8,51.0,30.17,SW,226,0.0,0.0,53,0.00,,CLR,0.00,VWS V12.08,2013-06-21 01:58:00,
2013-06-20 22:03:00,68.4,51.1,30.17,SW,226,0.0,0.0,54,0.00,,CLR,0.00,VWS V12.08,2013-06-21 02:03:00,
2013-06-20 22:08:00,68.2,51.5,30.17,SW,226,0.0,0.0,55,0.00,,CLR,0.00,VWS V12.08,2013-06-21 02:08:00,
2013-06-20 22:13:00,68.0,51.3,30.17,SW,226,0.0,0.0,55,0.00,,CLR,0.00,VWS V12.08,2013-06-21 02:13:00,
2013-06-20 22:18:00,68.0,51.8,30.17,SW,226,0.0,0.0,56,0.00,,CLR,0.00,VWS V12.08,2013-06-21 02:18:00,
2013-06-20 22:23:00,67.9,51.6,30.17,SW,226,0.0,0.0,56,0.00,,CLR,0.00,VWS V12.08,2013-06-21 02:23:00,
2013-06-20 22:28:00,67.7,51.9,30.17,SW,226,0.0,0.0,57,0.00,,CLR,0.00,VWS V12.08,2013-06-21 02:28:00,
2013-06-20 22:33:00,67.3,52.0,30.17,SW,226,0.0,0.0,58,0.00,,CLR,0.00,VWS V12.08,2013-06-21 02:33:00,
2013-06-20 22:38:00,66.8,52.0,30.17,SW,226,0.0,0.0,59,0.00,,CLR,0.00,VWS V12.08,2013-06-21 02:38:00,
2013-06-20 22:43:00,66.6,52.3,30.17,SW,226,0.0,0.0,60,0.00,,CLR,0.00,VWS V12.08,2013-06-21 02:43:00,
2013-06-20 22:48:00,66.6,52.3,30.17,SW,226,0.0,0.0,60,0.00,,CLR,0.00,VWS V12.08,2013-06-21 02:48:00,
2013-06-20 22:53:00,66.2,52.4,30.17,SW,226,0.0,0.0,61,0.00,,CLR,0.00,VWS V12.08,2013-06-21 02:53:00,
2013-06-20 22:58:00,66.1,52.7,30.17,SW,226,0.0,0.0,62,0.00,,CLR,0.00,VWS V12.08,2013-06-21 02:58:00,
2013-06-20 23:03:00,65.9,52.9,30.17,SW,226,0.0,0.0,63,0.00,,CLR,0.00,VWS V12.08,2013-06-21 03:03:00,
2013-06-20 23:08:00,65.7,52.8,30.17,SW,226,0.0,0.0,63,0.00,,CLR,0.00,VWS V12.08,2013-06-21 03:08:00,
2013-06-20 23:13:00,65.5,53.0,30.17,SW,226,0.0,0.0,64,0.00,,CLR,0.00,VWS V12.08,2013-06-21 03:13:00,
2013-06-20 23:18:00,65.3,52.9,30.17,SW,226,0.0,0.0,64,0.00,,CLR,0.00,VWS V12.08,2013-06-21 03:18:00,
2013-06-20 23:23:00,65.3,53.7,30.17,SW,226,0.0,0.0,66,0.00,,CLR,0.00,VWS V12.08,2013-06-21 03:23:00,
2013-06-20 23:28:00,65.0,55.0,30.17,SW,226,0.0,0.0,70,0.00,,CLR,0.00,VWS V12.08,2013-06-21 03:28:00,
2013-06-20 23:33:00,64.6,55.0,30.17,SW,226,0.0,0.0,71,0.00,,CLR,0.00,VWS V12.08,2013-06-21 03:33:00,
2013-06-20 23:38:00,64.4,55.2,30.17,SW,226,0.0,0.0,72,0.00,,CLR,0.00,VWS V12.08,2013-06-21 03:38:00,
2013-06-20 23:43:00,64.3,55.0,30.17,SW,226,0.0,0.0,72,0.00,,CLR,0.00,VWS V12.08,2013-06-21 03:43:00,
2013-06-20 23:48:00,64.3,55.4,30.17,SW,226,0.0,0.0,73,0.00,,CLR,0.00,VWS V12.08,2013-06-21 03:48:00,
2013-06-20 23:53:00,64.3,55.8,30.17,SW,226,0.0,0.0,74,0.00,,CLR,0.00,VWS V12.08,2013-06-21 03:53:00,
2013-06-20 23:58:00,63.9,55.8,30.17,SW,226,0.0,0.0,75,0.00,,CLR,0.00,VWS V12.08,2013-06-21 03:58:00,